Time;durP1;ratioP1;P1;durP2;ratioP2;P2;SDS_P1;SDS_P2;PMS_P1;PMS_P2;Temp;Humidity;BMP_temperature;BMP_pressure;BME280_temperature;BME280_humidity;BME280_pressure;Samples;Min_cycle;Max_cycle;Signal;HPM_P1;HPM_P2
2022/03/15 00:00:45;;;;;;;1.40;1.10;;;17.00;58.20;;;;;;5172435;28;20568;-65
2022/03/15 00:03:38;;;;;;;1.33;1.23;;;17.00;58.10;;;;;;5194319;28;20333;-65
2022/03/15 00:06:30;;;;;;;1.40;1.13;;;17.00;58.20;;;;;;5185520;28;20203;-65
2022/03/15 00:09:22;;;;;;;2.00;1.23;;;17.00;58.10;;;;;;5163103;28;20221;-65
2022/03/15 00:12:16;;;;;;;1.67;1.30;;;17.00;58.20;;;;;;5163776;28;20637;-65
2022/03/15 00:15:09;;;;;;;1.40;1.23;;;17.00;58.20;;;;;;5168153;28;20243;-63
2022/03/15 00:18:01;;;;;;;1.50;1.17;;;17.00;58.10;;;;;;5168430;28;20341;-65
2022/03/15 00:20:54;;;;;;;1.27;1.10;;;17.00;58.10;;;;;;5187236;28;20271;-65
2022/03/15 00:23:46;;;;;;;1.17;1.07;;;17.00;58.10;;;;;;5204412;28;20734;-65
2022/03/15 00:26:38;;;;;;;1.37;1.23;;;17.00;58.10;;;;;;5168813;28;20207;-65
2022/03/15 00:29:32;;;;;;;2.10;1.20;;;17.00;58.10;;;;;;5167208;28;20233;-65
2022/03/15 00:32:25;;;;;;;2.00;1.20;;;17.00;58.20;;;;;;5180389;28;20298;-65
2022/03/15 00:35:18;;;;;;;1.80;1.30;;;17.00;58.10;;;;;;5187785;28;20617;-65
2022/03/15 00:38:10;;;;;;;1.17;1.00;;;17.00;58.10;;;;;;5186476;28;20226;-65
2022/03/15 00:41:02;;;;;;;1.60;1.50;;;17.00;58.10;;;;;;5187953;28;20238;-65
2022/03/15 00:43:54;;;;;;;1.60;1.30;;;17.00;58.00;;;;;;5186060;28;20345;-65
2022/03/15 00:46:48;;;;;;;1.20;1.10;;;17.00;58.00;;;;;;5184466;28;20589;-65
2022/03/15 00:49:40;;;;;;;1.07;1.00;;;17.00;58.00;;;;;;5189076;28;20222;-65
2022/03/15 00:52:32;;;;;;;1.77;1.17;;;17.00;58.00;;;;;;5207020;28;20293;-65
2022/03/15 00:55:24;;;;;;;1.60;1.50;;;17.00;58.00;;;;;;5173370;28;20609;-65
2022/03/15 00:58:16;;;;;;;1.27;1.17;;;17.00;58.10;;;;;;5168797;28;20265;-65
2022/03/15 01:01:09;;;;;;;1.40;1.20;;;17.00;58.10;;;;;;5185589;28;20221;-64
2022/03/15 01:04:03;;;;;;;1.53;1.27;;;17.00;58.10;;;;;;5175416;28;20195;-65
2022/03/15 01:06:55;;;;;;;1.30;1.20;;;17.00;58.10;;;;;;5167146;28;20235;-65
2022/03/15 01:09:47;;;;;;;1.50;1.17;;;17.00;58.00;;;;;;5184313;28;20210;-66
2022/03/15 01:12:39;;;;;;;1.00;0.90;;;17.00;58.00;;;;;;5185106;28;20297;-65
2022/03/15 01:15:44;;;;;;;1.40;1.30;;;17.00;58.00;;;;;;5185832;28;20652;-65
2022/03/15 01:18:36;;;;;;;1.20;1.07;;;16.90;58.00;;;;;;5166097;28;20210;-65
2022/03/15 01:21:30;;;;;;;1.20;1.10;;;17.00;58.00;;;;;;5189188;28;20195;-65
2022/03/15 01:24:22;;;;;;;1.10;1.00;;;17.00;58.10;;;;;;5175478;28;20702;-65
2022/03/15 01:27:15;;;;;;;0.90;0.90;;;17.00;58.00;;;;;;5185478;28;20707;-65
2022/03/15 01:30:08;;;;;;;1.73;1.40;;;17.00;58.00;;;;;;5174574;28;20659;-65
2022/03/15 01:33:00;;;;;;;1.30;1.10;;;17.00;58.00;;;;;;5166591;28;20306;-65
2022/03/15 01:35:54;;;;;;;1.30;1.07;;;17.00;58.00;;;;;;5166128;28;20250;-66
2022/03/15 01:38:48;;;;;;;1.30;1.20;;;17.00;57.90;;;;;;5169619;28;20328;-65
2022/03/15 01:41:40;;;;;;;1.23;0.97;;;17.00;58.00;;;;;;5165314;28;20259;-67
2022/03/15 01:44:33;;;;;;;1.10;0.97;;;17.00;57.90;;;;;;5176461;28;20301;-65
2022/03/15 01:47:25;;;;;;;1.00;0.90;;;17.00;57.90;;;;;;5184776;28;20547;-65
2022/03/15 01:50:18;;;;;;;1.20;1.10;;;17.00;57.90;;;;;;5192478;28;20679;-65
2022/03/15 01:53:10;;;;;;;1.23;1.13;;;17.00;58.00;;;;;;5186172;28;20222;-63
2022/03/15 01:56:04;;;;;;;1.20;1.10;;;17.00;58.00;;;;;;5185682;28;20305;-65
2022/03/15 01:58:57;;;;;;;1.20;0.90;;;17.00;57.90;;;;;;5176382;28;20214;-66
2022/03/15 02:01:49;;;;;;;1.20;1.00;;;17.00;57.90;;;;;;5184478;28;20763;-66
2022/03/15 02:04:41;;;;;;;1.37;0.90;;;16.90;57.80;;;;;;5184581;28;20312;-66
2022/03/15 02:07:33;;;;;;;1.20;1.10;;;17.00;57.90;;;;;;5184768;28;20275;-65
2022/03/15 02:10:25;;;;;;;0.70;0.70;;;16.90;57.90;;;;;;5184650;28;20222;-65
2022/03/15 02:13:19;;;;;;;1.27;0.97;;;16.90;57.90;;;;;;5175189;28;20305;-65
2022/03/15 02:16:11;;;;;;;0.80;0.80;;;16.90;57.80;;;;;;5170544;28;20618;-64
2022/03/15 02:19:05;;;;;;;0.90;0.90;;;16.90;57.80;;;;;;5180595;28;20659;-65
2022/03/15 02:21:58;;;;;;;1.60;1.10;;;16.90;57.80;;;;;;5194465;28;20288;-65
2022/03/15 02:24:50;;;;;;;1.30;1.00;;;16.90;57.80;;;;;;5187316;28;20250;-64
2022/03/15 02:27:42;;;;;;;0.93;0.90;;;16.90;57.80;;;;;;5182967;28;20282;-65
2022/03/15 02:30:35;;;;;;;1.27;0.90;;;16.90;57.70;;;;;;5165202;28;20224;-65
2022/03/15 02:33:27;;;;;;;1.03;0.90;;;16.90;57.70;;;;;;5166118;28;20686;-65
2022/03/15 02:36:19;;;;;;;0.80;0.80;;;16.90;57.80;;;;;;5184172;28;20250;-67
2022/03/15 02:39:13;;;;;;;0.90;0.90;;;16.90;57.80;;;;;;5183750;28;20728;-65
2022/03/15 02:42:06;;;;;;;0.80;0.80;;;16.90;57.70;;;;;;5181965;28;20195;-64
2022/03/15 02:44:58;;;;;;;1.10;1.00;;;16.90;57.80;;;;;;5184205;28;20222;-66
2022/03/15 02:47:50;;;;;;;1.53;0.70;;;17.00;57.80;;;;;;5182723;28;20263;-66
2022/03/15 02:50:42;;;;;;;0.60;0.60;;;16.90;57.70;;;;;;5171028;28;20214;-66
2022/03/15 02:53:34;;;;;;;1.17;1.07;;;17.00;57.80;;;;;;5164381;28;20733;-67
2022/03/15 02:56:29;;;;;;;1.00;0.80;;;17.00;57.70;;;;;;5179153;28;20199;-65
2022/03/15 02:59:21;;;;;;;1.50;1.17;;;16.90;57.70;;;;;;5164101;28;20203;-65
2022/03/15 03:02:14;;;;;;;1.03;0.93;;;16.90;57.80;;;;;;5164284;28;20278;-65
2022/03/15 03:05:07;;;;;;;0.97;0.93;;;17.00;57.80;;;;;;5172470;28;20756;-65
2022/03/15 03:08:00;;;;;;;1.20;1.10;;;16.90;57.70;;;;;;5165141;28;20681;-67
2022/03/15 03:10:53;;;;;;;0.70;0.70;;;16.90;57.70;;;;;;5164577;28;20253;-65
2022/03/15 03:13:48;;;;;;;0.80;0.80;;;16.90;57.70;;;;;;5175839;28;20218;-65
2022/03/15 03:16:41;;;;;;;0.90;0.90;;;17.00;57.80;;;;;;5184664;28;20654;-65
2022/03/15 03:19:38;;;;;;;1.03;0.87;;;16.90;57.70;;;;;;5169619;28;20256;-65
2022/03/15 03:22:30;;;;;;;1.70;0.80;;;17.00;57.70;;;;;;5182984;28;20204;-65
2022/03/15 03:25:24;;;;;;;0.90;0.90;;;17.00;57.80;;;;;;5204424;28;20219;-65
2022/03/15 03:28:17;;;;;;;0.80;0.73;;;16.90;57.70;;;;;;5168702;28;20199;-65
2022/03/15 03:31:11;;;;;;;1.50;0.80;;;16.90;57.70;;;;;;5164307;28;20581;-64
2022/03/15 03:34:04;;;;;;;1.30;1.10;;;16.90;57.60;;;;;;5163887;28;20191;-65
2022/03/15 03:36:56;;;;;;;0.70;0.70;;;16.90;57.70;;;;;;5163824;28;20294;-64
2022/03/15 03:39:48;;;;;;;0.80;0.80;;;16.90;57.70;;;;;;5175251;28;20195;-65
2022/03/15 03:42:41;;;;;;;1.17;0.93;;;17.00;57.70;;;;;;5188995;28;20569;-64
2022/03/15 03:45:34;;;;;;;1.00;0.90;;;16.90;57.60;;;;;;5199696;28;20600;-65
2022/03/15 03:48:28;;;;;;;1.10;1.00;;;16.90;57.70;;;;;;5188946;28;20317;-65
2022/03/15 03:51:20;;;;;;;1.10;1.00;;;16.90;57.70;;;;;;5203843;28;20250;-65
2022/03/15 03:54:12;;;;;;;1.13;1.00;;;16.90;57.70;;;;;;5177516;28;20222;-65
2022/03/15 03:57:05;;;;;;;1.23;0.90;;;16.90;57.60;;;;;;5168229;28;20280;-65
2022/03/15 03:59:57;;;;;;;1.53;1.03;;;16.90;57.60;;;;;;5168146;28;20301;-65
2022/03/15 04:02:50;;;;;;;0.97;0.90;;;16.90;57.60;;;;;;5174883;28;20198;-65
2022/03/15 04:05:44;;;;;;;1.20;1.10;;;16.90;57.60;;;;;;5175773;28;20219;-65
2022/03/15 04:08:36;;;;;;;1.03;0.90;;;16.90;57.60;;;;;;5168990;28;20231;-65
2022/03/15 04:11:31;;;;;;;1.33;1.00;;;16.90;57.60;;;;;;5168233;28;20278;-65
2022/03/15 04:14:23;;;;;;;0.93;0.80;;;16.90;57.70;;;;;;5167804;28;20211;-65
2022/03/15 04:17:16;;;;;;;0.80;0.80;;;16.90;57.60;;;;;;5171077;28;20272;-65
2022/03/15 04:20:09;;;;;;;0.90;0.80;;;16.90;57.60;;;;;;5186284;28;20272;-65
2022/03/15 04:23:03;;;;;;;1.33;1.10;;;16.90;57.60;;;;;;5183007;28;20277;-65
2022/03/15 04:25:55;;;;;;;1.07;0.97;;;16.90;57.70;;;;;;5167301;28;20223;-65
2022/03/15 04:28:47;;;;;;;0.87;0.87;;;16.90;57.60;;;;;;5168330;28;20202;-65
2022/03/15 04:31:40;;;;;;;0.83;0.83;;;16.90;57.60;;;;;;5166914;28;20249;-65
2022/03/15 04:34:32;;;;;;;0.80;0.80;;;16.90;57.60;;;;;;5167001;28;20623;-65
2022/03/15 04:37:24;;;;;;;1.20;1.10;;;16.90;57.60;;;;;;5167137;28;20202;-65
2022/03/15 04:40:18;;;;;;;0.77;0.77;;;16.90;57.60;;;;;;5166635;28;20281;-65
2022/03/15 04:43:10;;;;;;;1.20;1.10;;;16.90;57.50;;;;;;5184508;28;20269;-62
2022/03/15 04:46:02;;;;;;;1.00;1.00;;;16.90;57.50;;;;;;5166726;28;20342;-65
2022/03/15 04:48:55;;;;;;;1.00;0.97;;;16.90;57.50;;;;;;5168865;28;20321;-65
2022/03/15 04:51:48;;;;;;;1.10;1.00;;;16.90;57.50;;;;;;5167516;28;20207;-65
2022/03/15 04:54:40;;;;;;;0.80;0.80;;;17.00;57.50;;;;;;5185719;28;20217;-65
2022/03/15 04:57:34;;;;;;;1.10;1.00;;;17.00;57.50;;;;;;5184256;28;20346;-65
2022/03/15 05:00:26;;;;;;;1.20;1.10;;;17.00;57.50;;;;;;5185428;28;20253;-65
2022/03/15 05:03:18;;;;;;;1.10;1.00;;;17.00;57.50;;;;;;5183713;28;20686;-65
2022/03/15 05:06:10;;;;;;;1.00;1.00;;;17.00;57.40;;;;;;5180680;28;20277;-63
2022/03/15 05:09:02;;;;;;;1.10;1.00;;;17.00;57.40;;;;;;5191638;28;20199;-65
2022/03/15 05:11:54;;;;;;;1.10;1.00;;;17.00;57.30;;;;;;5204482;28;20687;-65
2022/03/15 05:14:47;;;;;;;0.80;0.80;;;17.00;57.40;;;;;;5166552;28;20838;-65
2022/03/15 05:17:40;;;;;;;0.70;0.70;;;17.00;57.40;;;;;;5172767;28;20199;-65
2022/03/15 05:20:32;;;;;;;2.30;1.00;;;17.00;57.40;;;;;;5193712;28;20205;-65
2022/03/15 05:23:24;;;;;;;1.30;0.90;;;17.10;57.40;;;;;;5166362;28;20270;-65
2022/03/15 05:26:17;;;;;;;0.87;0.87;;;17.00;57.40;;;;;;5180058;28;20303;-65
2022/03/15 05:29:10;;;;;;;1.77;1.10;;;17.00;57.40;;;;;;5183189;28;20662;-62
2022/03/15 05:32:04;;;;;;;0.80;0.80;;;17.10;57.40;;;;;;5184489;28;20721;-65
2022/03/15 05:34:56;;;;;;;1.00;0.90;;;17.00;57.40;;;;;;5184541;28;20732;-65
2022/03/15 05:37:48;;;;;;;0.90;0.90;;;17.10;57.40;;;;;;5181073;28;20199;-65
2022/03/15 05:40:40;;;;;;;1.47;1.03;;;17.10;57.40;;;;;;5188829;28;20190;-65
2022/03/15 05:43:32;;;;;;;1.10;1.00;;;17.10;57.40;;;;;;5167473;28;20191;-65
2022/03/15 05:46:25;;;;;;;1.10;1.00;;;17.10;57.40;;;;;;5169215;28;20637;-64
2022/03/15 05:49:18;;;;;;;0.90;0.90;;;17.10;57.30;;;;;;5165060;28;20249;-66
2022/03/15 05:52:11;;;;;;;1.60;1.40;;;17.10;57.30;;;;;;5200084;28;20226;-62
2022/03/15 05:55:04;;;;;;;1.60;1.27;;;17.10;57.30;;;;;;5184528;28;20218;-68
2022/03/15 05:57:56;;;;;;;0.97;0.90;;;17.10;57.30;;;;;;5186332;28;20543;-64
2022/03/15 06:00:49;;;;;;;1.53;1.20;;;17.00;57.30;;;;;;5176461;28;20198;-65
2022/03/15 06:03:41;;;;;;;1.40;1.00;;;17.00;57.30;;;;;;5181961;28;20225;-65
2022/03/15 06:06:34;;;;;;;1.13;1.00;;;17.00;57.30;;;;;;5184773;28;20274;-64
2022/03/15 06:09:26;;;;;;;1.80;1.40;;;17.00;57.30;;;;;;5169241;28;20256;-64
2022/03/15 06:12:19;;;;;;;1.17;1.07;;;17.00;57.30;;;;;;5169742;28;20561;-64
2022/03/15 06:15:12;;;;;;;1.60;1.30;;;17.00;57.30;;;;;;5184538;28;20242;-62
2022/03/15 06:18:05;;;;;;;1.30;1.20;;;17.00;57.20;;;;;;5184765;28;20248;-65
2022/03/15 06:20:57;;;;;;;1.20;1.10;;;17.00;57.20;;;;;;5165293;28;20206;-65
2022/03/15 06:23:51;;;;;;;1.30;1.20;;;17.10;57.30;;;;;;5164632;28;20226;-65
2022/03/15 06:26:43;;;;;;;1.23;1.00;;;17.00;57.30;;;;;;5167793;28;20196;-64
2022/03/15 06:29:36;;;;;;;1.20;1.10;;;17.10;57.50;;;;;;5173244;28;20211;-65
2022/03/15 06:32:28;;;;;;;1.13;1.03;;;17.00;57.30;;;;;;5180253;28;20194;-65
2022/03/15 06:35:20;;;;;;;1.27;1.17;;;17.00;57.20;;;;;;5184043;28;20277;-65
2022/03/15 06:38:12;;;;;;;1.83;1.30;;;17.10;57.20;;;;;;5184162;28;20562;-67
2022/03/15 06:41:06;;;;;;;0.83;0.83;;;17.00;57.30;;;;;;5170160;28;20310;-67
2022/03/15 06:43:58;;;;;;;1.00;0.90;;;17.10;57.40;;;;;;5164373;28;20206;-66
2022/03/15 06:46:50;;;;;;;2.50;1.23;;;17.10;57.50;;;;;;5164267;28;20618;-66
2022/03/15 06:49:43;;;;;;;1.83;1.20;;;17.10;57.60;;;;;;5184887;28;20186;-66
2022/03/15 06:52:35;;;;;;;1.30;1.00;;;17.10;57.50;;;;;;5205351;28;20284;-70
2022/03/15 06:55:28;;;;;;;1.00;0.93;;;17.10;57.80;;;;;;5203965;28;20221;-71
2022/03/15 06:58:22;;;;;;;1.40;1.00;;;17.20;57.70;;;;;;5204250;28;20194;-72
2022/03/15 07:01:14;;;;;;;1.40;1.03;;;17.20;57.70;;;;;;5196835;28;20194;-70
2022/03/15 07:04:06;;;;;;;1.30;0.90;;;17.20;58.20;;;;;;5187418;28;20707;-71
2022/03/15 07:06:58;;;;;;;2.70;1.10;;;17.20;57.60;;;;;;5191254;28;20207;-71
2022/03/15 07:09:51;;;;;;;1.73;1.10;;;17.20;57.50;;;;;;5172943;28;20194;-71
2022/03/15 07:12:43;;;;;;;1.50;1.17;;;17.20;57.40;;;;;;5182970;28;20202;-72
2022/03/15 07:15:36;;;;;;;0.80;0.80;;;17.30;57.40;;;;;;5175150;28;20306;-67
2022/03/15 07:18:28;;;;;;;2.43;1.13;;;17.20;57.30;;;;;;5165008;28;20203;-66
2022/03/15 07:21:21;;;;;;;1.67;1.07;;;17.30;57.00;;;;;;5180057;28;20226;-64
2022/03/15 07:24:13;;;;;;;1.30;1.17;;;17.30;56.80;;;;;;5184395;28;20440;-66
2022/03/15 07:27:05;;;;;;;1.20;1.07;;;17.20;56.70;;;;;;5180534;28;20334;-66
2022/03/15 07:29:57;;;;;;;0.97;0.93;;;17.20;56.90;;;;;;5163563;28;20195;-66
2022/03/15 07:32:50;;;;;;;1.00;0.90;;;17.20;56.90;;;;;;5180672;28;20207;-72
2022/03/15 07:35:43;;;;;;;1.20;1.10;;;17.20;57.40;;;;;;5177019;28;20768;-66
2022/03/15 07:38:35;;;;;;;1.33;1.03;;;17.20;57.40;;;;;;5170147;28;20289;-67
2022/03/15 07:41:27;;;;;;;1.43;1.10;;;17.20;57.30;;;;;;5168179;28;20696;-66
2022/03/15 07:44:19;;;;;;;1.37;1.20;;;17.20;57.00;;;;;;5183651;28;20237;-68
2022/03/15 07:47:13;;;;;;;1.20;1.10;;;17.10;57.00;;;;;;5181980;28;20330;-66
2022/03/15 07:50:07;;;;;;;2.13;1.20;;;17.20;57.50;;;;;;5194860;28;20201;-68
2022/03/15 07:53:02;;;;;;;4.23;1.30;;;17.20;57.60;;;;;;5183967;28;20681;-68
2022/03/15 07:55:54;;;;;;;1.47;1.07;;;17.20;57.70;;;;;;5166334;28;20221;-67
2022/03/15 07:58:46;;;;;;;1.23;1.07;;;17.20;57.60;;;;;;5164457;28;20195;-68
2022/03/15 08:01:38;;;;;;;1.10;1.00;;;17.20;57.60;;;;;;5174116;28;20558;-68
2022/03/15 08:04:31;;;;;;;2.30;1.17;;;17.20;57.60;;;;;;5188274;28;20209;-68
2022/03/15 08:07:24;;;;;;;1.10;1.00;;;17.20;57.60;;;;;;5190276;28;20200;-68
2022/03/15 08:10:16;;;;;;;1.37;1.17;;;17.20;57.60;;;;;;5191096;28;20191;-67
2022/03/15 08:13:09;;;;;;;1.57;1.00;;;17.20;57.60;;;;;;5174982;28;20199;-68
2022/03/15 08:16:02;;;;;;;1.33;1.20;;;17.20;57.70;;;;;;5168161;28;20261;-67
2022/03/15 08:18:55;;;;;;;2.13;1.13;;;17.20;57.60;;;;;;5185157;28;20673;-68
2022/03/15 08:21:48;;;;;;;1.60;0.90;;;17.20;57.60;;;;;;5178373;28;20195;-67
2022/03/15 08:24:42;;;;;;;1.37;1.00;;;17.30;57.70;;;;;;5165855;28;20772;-70
2022/03/15 08:27:34;;;;;;;1.50;1.10;;;17.30;57.80;;;;;;5184561;28;20194;-69
2022/03/15 08:30:26;;;;;;;0.93;0.90;;;17.30;57.80;;;;;;5180191;28;20292;-69
2022/03/15 08:33:19;;;;;;;2.63;1.40;;;17.30;57.80;;;;;;5240495;22;20232;-69
2022/03/15 08:36:11;;;;;;;2.30;1.00;;;17.30;57.60;;;;;;5245351;28;20571;-66
2022/03/15 08:39:04;;;;;;;1.33;1.20;;;17.30;57.70;;;;;;5237465;28;20319;-67
2022/03/15 08:41:57;;;;;;;2.17;1.40;;;17.30;57.80;;;;;;5239577;28;20695;-66
2022/03/15 08:44:49;;;;;;;1.77;1.50;;;17.30;57.80;;;;;;5249207;28;20193;-66
2022/03/15 08:47:42;;;;;;;1.83;1.40;;;17.30;57.60;;;;;;5249679;28;20275;-66
2022/03/15 08:50:34;;;;;;;2.10;1.90;;;17.30;57.50;;;;;;5247613;28;20609;-66
2022/03/15 08:53:27;;;;;;;5.10;4.20;;;17.30;57.40;;;;;;5248382;28;20217;-66
2022/03/15 08:56:19;;;;;;;4.60;4.20;;;17.30;56.50;;;;;;5247917;28;20223;-66
2022/03/15 08:59:15;;;;;;;6.83;5.73;;;17.20;55.20;;;;;;5248313;28;20196;-67
2022/03/15 09:02:09;;;;;;;10.80;5.90;;;17.20;54.90;;;;;;5247501;28;20212;-66
2022/03/15 09:05:01;;;;;;;6.97;5.70;;;17.20;54.40;;;;;;5246731;28;20199;-66
2022/03/15 09:07:53;;;;;;;7.30;6.60;;;17.20;54.00;;;;;;5247686;28;20656;-66
2022/03/15 09:10:47;;;;;;;8.33;7.40;;;17.10;53.90;;;;;;5247505;28;20273;-66
2022/03/15 09:13:39;;;;;;;9.03;8.00;;;17.00;53.70;;;;;;5227999;28;20358;-68
2022/03/15 09:16:34;;;;;;;9.73;8.40;;;17.00;53.40;;;;;;5226790;28;20292;-68
2022/03/15 09:19:26;;;;;;;8.27;7.40;;;17.00;53.50;;;;;;5226733;28;20189;-67
2022/03/15 09:22:19;;;;;;;9.47;7.97;;;16.90;53.60;;;;;;5237923;28;20564;-68
2022/03/15 09:25:11;;;;;;;8.90;7.40;;;16.90;53.80;;;;;;5247480;28;20189;-67
2022/03/15 09:28:04;;;;;;;8.80;7.73;;;16.90;53.90;;;;;;5247307;28;20571;-66
2022/03/15 09:30:56;;;;;;;9.97;8.90;;;16.90;54.10;;;;;;5245792;28;20203;-66
2022/03/15 09:33:50;;;;;;;9.70;8.70;;;16.80;54.20;;;;;;5247587;28;20216;-67
2022/03/15 09:36:42;;;;;;;10.57;9.13;;;16.80;54.30;;;;;;5247904;28;20444;-66
2022/03/15 09:39:34;;;;;;;9.90;8.53;;;16.80;54.40;;;;;;5247462;28;20587;-67
2022/03/15 09:42:30;;;;;;;10.43;9.37;;;16.80;54.60;;;;;;5246122;28;20236;-67
2022/03/15 09:45:23;;;;;;;10.67;9.10;;;16.80;54.80;;;;;;5247503;28;20250;-67
2022/03/15 09:48:19;;;;;;;9.70;8.70;;;16.80;54.90;;;;;;5246185;28;20205;-66
2022/03/15 09:51:15;;;;;;;8.70;7.33;;;16.80;55.00;;;;;;5243385;28;20241;-66
2022/03/15 09:54:08;;;;;;;8.53;7.27;;;16.80;55.40;;;;;;5246801;28;20234;-66
2022/03/15 09:57:02;;;;;;;7.67;6.53;;;16.80;55.60;;;;;;5246182;28;20310;-66
2022/03/15 10:00:00;;;;;;;7.60;6.37;;;16.80;55.80;;;;;;5246562;28;20232;-66
2022/03/15 10:02:52;;;;;;;6.10;5.43;;;16.90;56.00;;;;;;5244938;28;20331;-66
2022/03/15 10:05:45;;;;;;;5.60;5.00;;;16.90;56.00;;;;;;5246036;28;20309;-65
2022/03/15 10:08:39;;;;;;;5.27;4.57;;;16.90;56.00;;;;;;5245005;28;20196;-66
2022/03/15 10:11:31;;;;;;;5.87;4.40;;;16.90;56.10;;;;;;5226553;28;20206;-66
2022/03/15 10:14:23;;;;;;;6.73;4.40;;;17.00;56.20;;;;;;5226405;28;20213;-66
2022/03/15 10:17:16;;;;;;;4.23;3.80;;;17.00;56.20;;;;;;5226428;28;20285;-66
2022/03/15 10:20:09;;;;;;;4.23;3.83;;;17.00;56.20;;;;;;5226664;28;20256;-67
2022/03/15 10:23:03;;;;;;;4.13;3.40;;;17.10;56.90;;;;;;5232536;28;20243;-68
2022/03/15 10:25:58;;;;;;;3.40;3.10;;;17.10;56.30;;;;;;5246363;28;20663;-68
2022/03/15 10:28:52;;;;;;;3.23;2.80;;;17.10;56.40;;;;;;5246927;28;20201;-68
2022/03/15 10:31:45;;;;;;;3.30;3.00;;;17.10;56.50;;;;;;5246567;28;20189;-67
2022/03/15 10:34:37;;;;;;;3.50;2.57;;;17.10;56.60;;;;;;5253622;28;20241;-67
2022/03/15 10:37:32;;;;;;;2.73;2.40;;;17.10;56.70;;;;;;5247064;28;20202;-67
2022/03/15 10:40:32;;;;;;;2.43;2.23;;;17.10;56.70;;;;;;5243866;28;20279;-68
2022/03/15 10:43:27;;;;;;;2.23;2.00;;;17.10;56.80;;;;;;5245474;28;20223;-67
2022/03/15 10:46:23;;;;;;;2.63;2.20;;;17.10;56.90;;;;;;5246146;28;20231;-67
2022/03/15 10:49:15;;;;;;;2.70;2.13;;;17.10;57.60;;;;;;5247137;28;20197;-68
2022/03/15 10:52:07;;;;;;;2.20;2.00;;;17.10;57.10;;;;;;5226712;28;20713;-67
2022/03/15 10:55:10;;;;;;;2.30;2.07;;;17.10;57.20;;;;;;5225017;28;20267;-68
2022/03/15 10:58:05;;;;;;;2.67;2.07;;;17.10;57.30;;;;;;5238171;28;20196;-68
2022/03/15 11:00:59;;;;;;;2.30;2.10;;;17.10;57.40;;;;;;5245443;28;20283;-68
2022/03/15 11:03:59;;;;;;;2.53;1.97;;;17.10;58.00;;;;;;5245748;28;20277;-68
2022/03/15 11:06:52;;;;;;;3.53;2.20;;;17.10;57.50;;;;;;5253736;28;20204;-67
2022/03/15 11:09:44;;;;;;;1.73;1.60;;;17.10;57.50;;;;;;5264368;28;20199;-68
2022/03/15 11:12:37;;;;;;;3.10;1.90;;;17.10;57.60;;;;;;5244572;28;20224;-67
2022/03/15 11:15:31;;;;;;;2.20;2.00;;;17.20;57.70;;;;;;5225999;28;20262;-67
2022/03/15 11:18:29;;;;;;;2.20;2.00;;;17.10;57.70;;;;;;5224675;28;20197;-68
2022/03/15 11:21:22;;;;;;;2.43;1.90;;;17.10;57.80;;;;;;5225198;28;20268;-67
2022/03/15 11:24:24;;;;;;;2.67;2.00;;;17.10;58.40;;;;;;5233379;28;20326;-68
2022/03/15 11:27:17;;;;;;;3.13;1.80;;;17.10;57.80;;;;;;5226059;28;20196;-68
2022/03/15 11:30:11;;;;;;;2.70;2.07;;;17.10;57.90;;;;;;5227493;28;20201;-68
2022/03/15 11:33:05;;;;;;;2.67;1.80;;;17.10;57.90;;;;;;5245809;28;20631;-69
2022/03/15 11:36:01;;;;;;;2.00;1.80;;;17.10;58.00;;;;;;5245711;28;20305;-68
2022/03/15 11:38:54;;;;;;;3.83;2.23;;;17.20;58.10;;;;;;5225440;28;20189;-68
2022/03/15 11:41:46;;;;;;;2.60;1.60;;;17.10;58.10;;;;;;5225224;28;20280;-67
2022/03/15 11:44:49;;;;;;;3.07;1.77;;;17.10;58.10;;;;;;5232199;28;20240;-67
2022/03/15 11:47:46;;;;;;;2.40;1.47;;;17.10;57.90;;;;;;5250702;28;20188;-67
2022/03/15 11:50:45;;;;;;;4.53;2.17;;;17.10;57.80;;;;;;5244874;28;20188;-66
2022/03/15 11:53:48;;;;;;;2.20;2.00;;;17.20;57.90;;;;;;5243946;28;20212;-66
2022/03/15 11:56:46;;;;;;;1.93;1.73;;;17.20;57.80;;;;;;5245295;28;20189;-67
2022/03/15 11:59:49;;;;;;;2.80;1.83;;;17.20;57.80;;;;;;5245596;28;20260;-66
2022/03/15 12:02:41;;;;;;;2.83;1.87;;;17.30;57.80;;;;;;5248863;28;20249;-66
2022/03/15 12:05:43;;;;;;;2.27;1.70;;;17.30;57.80;;;;;;5245924;28;20201;-68
2022/03/15 12:08:36;;;;;;;1.67;1.57;;;17.30;57.80;;;;;;5258550;28;20249;-68
2022/03/15 12:11:34;;;;;;;2.20;1.80;;;17.30;58.10;;;;;;5243556;28;20269;-68
2022/03/15 12:14:37;;;;;;;3.63;1.67;;;17.20;58.00;;;;;;5247316;28;20276;-69
2022/03/15 12:17:39;;;;;;;2.40;1.77;;;17.20;58.20;;;;;;5245133;28;20227;-69
2022/03/15 12:20:42;;;;;;;1.60;1.47;;;17.20;58.30;;;;;;5249789;28;20271;-68
2022/03/15 12:23:42;;;;;;;2.10;1.83;;;17.20;58.40;;;;;;5228105;28;20710;-68
2022/03/15 12:26:36;;;;;;;2.57;1.83;;;17.20;58.40;;;;;;5228852;28;20572;-68
2022/03/15 12:29:29;;;;;;;1.70;1.60;;;17.20;58.50;;;;;;5240389;28;20659;-68
2022/03/15 12:32:22;;;;;;;2.30;1.90;;;17.20;58.60;;;;;;5249282;28;20228;-68
2022/03/15 12:35:15;;;;;;;2.47;1.90;;;17.20;58.60;;;;;;5249010;28;20273;-69
2022/03/15 12:38:10;;;;;;;1.83;1.73;;;17.10;58.60;;;;;;5249080;28;20216;-69
2022/03/15 12:41:02;;;;;;;2.10;1.50;;;17.20;58.70;;;;;;5247386;28;20322;-68
2022/03/15 12:43:56;;;;;;;2.37;1.80;;;17.20;58.70;;;;;;5249453;28;20298;-68
2022/03/15 12:46:49;;;;;;;3.30;1.90;;;17.10;58.70;;;;;;5248567;28;20279;-68
2022/03/15 12:49:42;;;;;;;1.90;1.77;;;17.10;58.70;;;;;;5249278;28;20717;-68
2022/03/15 12:52:39;;;;;;;3.00;1.80;;;17.10;58.80;;;;;;5249505;28;20213;-68
2022/03/15 12:55:35;;;;;;;2.13;1.73;;;17.10;58.80;;;;;;5249538;28;20220;-69
2022/03/15 12:58:29;;;;;;;2.63;1.70;;;17.10;58.80;;;;;;5248994;28;20813;-68
2022/03/15 13:01:22;;;;;;;2.23;1.70;;;17.10;58.90;;;;;;5246336;28;20200;-68
2022/03/15 13:04:15;;;;;;;1.70;1.60;;;17.10;58.90;;;;;;5237840;28;20196;-68
2022/03/15 13:07:08;;;;;;;3.77;1.60;;;17.20;58.90;;;;;;5248655;28;20197;-67
2022/03/15 13:10:01;;;;;;;1.83;1.50;;;17.20;58.90;;;;;;5246974;28;20196;-68
2022/03/15 13:12:55;;;;;;;2.87;1.53;;;17.20;58.70;;;;;;5247734;28;20216;-67
2022/03/15 13:15:49;;;;;;;3.37;2.10;;;17.20;58.80;;;;;;5247888;28;20216;-67
2022/03/15 13:18:43;;;;;;;2.73;1.80;;;17.20;59.00;;;;;;5248572;28;20216;-67
2022/03/15 13:21:38;;;;;;;2.83;2.10;;;17.20;59.00;;;;;;5248326;28;20279;-67
2022/03/15 13:24:35;;;;;;;1.90;1.70;;;17.20;59.20;;;;;;5248552;28;20685;-66
2022/03/15 13:27:38;;;;;;;2.70;2.03;;;17.20;59.30;;;;;;5247121;28;20686;-67
2022/03/15 13:30:30;;;;;;;2.53;2.00;;;17.20;59.30;;;;;;5247073;28;20567;-67
2022/03/15 13:33:28;;;;;;;2.50;2.07;;;17.20;59.30;;;;;;5246470;28;20809;-67
2022/03/15 13:36:22;;;;;;;2.50;2.17;;;17.20;59.30;;;;;;5247368;28;20208;-67
2022/03/15 13:39:15;;;;;;;2.20;2.00;;;17.20;59.30;;;;;;5247895;28;20789;-67
2022/03/15 13:42:10;;;;;;;3.07;2.10;;;17.20;59.30;;;;;;5247435;28;20269;-67
2022/03/15 13:45:02;;;;;;;2.13;1.83;;;17.20;59.30;;;;;;5247396;28;20193;-67
2022/03/15 13:47:55;;;;;;;3.03;2.20;;;17.20;59.30;;;;;;5246980;28;20192;-67
2022/03/15 13:50:58;;;;;;;2.70;2.10;;;17.20;59.30;;;;;;5247174;28;20690;-67
2022/03/15 13:53:52;;;;;;;1.63;1.43;;;17.20;59.40;;;;;;5247456;28;20212;-66
2022/03/15 13:56:48;;;;;;;1.97;1.70;;;17.20;59.20;;;;;;5246632;28;20349;-66
2022/03/15 13:59:41;;;;;;;3.43;1.77;;;17.20;59.00;;;;;;5245971;28;20192;-67
2022/03/15 14:02:34;;;;;;;2.20;1.57;;;17.30;59.00;;;;;;5245522;28;20299;-67
2022/03/15 14:05:27;;;;;;;3.53;1.80;;;17.30;58.90;;;;;;5246674;28;20706;-67
2022/03/15 14:08:19;;;;;;;1.93;1.60;;;17.30;59.00;;;;;;5246973;28;20203;-67
2022/03/15 14:11:13;;;;;;;2.27;1.63;;;17.30;58.90;;;;;;5245003;28;20223;-67
2022/03/15 14:14:08;;;;;;;3.27;1.83;;;17.30;58.90;;;;;;5248267;28;20193;-67
2022/03/15 14:17:02;;;;;;;2.83;2.20;;;17.30;58.80;;;;;;5247818;28;20223;-67
2022/03/15 14:19:57;;;;;;;2.87;2.00;;;17.30;58.80;;;;;;5245494;28;20199;-67
2022/03/15 14:22:52;;;;;;;2.03;1.50;;;17.40;58.80;;;;;;5246951;28;20227;-66
2022/03/15 14:25:45;;;;;;;2.27;1.60;;;17.40;58.80;;;;;;5246674;28;20791;-67
2022/03/15 14:28:40;;;;;;;2.70;1.80;;;17.40;58.80;;;;;;5246758;28;20200;-66
2022/03/15 14:31:36;;;;;;;3.67;2.20;;;17.40;58.80;;;;;;5245708;28;20338;-67
2022/03/15 14:34:30;;;;;;;1.80;1.60;;;17.40;58.80;;;;;;5246669;28;20193;-66
2022/03/15 14:37:25;;;;;;;4.23;1.90;;;17.40;58.70;;;;;;5245868;28;20185;-67
2022/03/15 14:40:20;;;;;;;2.20;1.53;;;17.40;58.80;;;;;;5246355;28;20204;-67
2022/03/15 14:43:17;;;;;;;2.70;2.00;;;17.40;58.90;;;;;;5246467;28;20223;-66
2022/03/15 14:46:12;;;;;;;2.67;2.00;;;17.40;58.80;;;;;;5247637;28;20184;-66
2022/03/15 14:49:07;;;;;;;2.97;2.07;;;17.40;58.80;;;;;;5240968;28;20207;-66
2022/03/15 14:52:00;;;;;;;3.30;2.37;;;17.40;58.80;;;;;;5243801;28;20228;-67
2022/03/15 14:54:53;;;;;;;3.27;2.40;;;17.40;58.80;;;;;;5243846;28;20200;-66
2022/03/15 14:57:46;;;;;;;4.80;2.13;;;17.40;58.80;;;;;;5247170;28;20698;-66
2022/03/15 15:00:41;;;;;;;2.93;2.20;;;17.40;58.80;;;;;;5247312;28;20188;-67